sensor_id;sensor_type;location;lat;lon;timestamp;P1;durP1;ratioP1;P2;durP2;ratioP2
80334;SDS011;69653;52.674;13.574;2023-07-24T00:01:16;6.00;;;2.43;;
80334;SDS011;69653;52.674;13.574;2023-07-24T00:03:43;4.90;;;2.65;;
80334;SDS011;69653;52.674;13.574;2023-07-24T00:06:08;5.03;;;2.73;;
80334;SDS011;69653;52.674;13.574;2023-07-24T00:08:33;4.57;;;2.20;;
80334;SDS011;69653;52.674;13.574;2023-07-24T00:10:59;5.37;;;2.40;;
80334;SDS011;69653;52.674;13.574;2023-07-24T00:13:24;5.55;;;2.50;;
80334;SDS011;69653;52.674;13.574;2023-07-24T00:15:50;4.93;;;2.40;;
80334;SDS011;69653;52.674;13.574;2023-07-24T00:18:16;5.35;;;2.22;;
80334;SDS011;69653;52.674;13.574;2023-07-24T00:20:41;6.25;;;2.70;;
80334;SDS011;69653;52.674;13.574;2023-07-24T00:23:07;5.50;;;2.47;;
80334;SDS011;69653;52.674;13.574;2023-07-24T00:25:32;4.90;;;2.28;;
80334;SDS011;69653;52.674;13.574;2023-07-24T00:27:58;5.63;;;2.30;;
80334;SDS011;69653;52.674;13.574;2023-07-24T00:30:23;5.60;;;2.40;;
80334;SDS011;69653;52.674;13.574;2023-07-24T00:32:48;5.53;;;2.23;;
80334;SDS011;69653;52.674;13.574;2023-07-24T00:35:14;5.40;;;2.10;;
80334;SDS011;69653;52.674;13.574;2023-07-24T00:37:39;5.13;;;2.50;;
80334;SDS011;69653;52.674;13.574;2023-07-24T00:40:05;5.10;;;2.50;;
80334;SDS011;69653;52.674;13.574;2023-07-24T00:42:31;5.68;;;2.90;;
80334;SDS011;69653;52.674;13.574;2023-07-24T00:44:56;5.25;;;2.75;;
80334;SDS011;69653;52.674;13.574;2023-07-24T00:47:21;5.07;;;2.37;;
80334;SDS011;69653;52.674;13.574;2023-07-24T00:49:47;4.70;;;2.30;;
80334;SDS011;69653;52.674;13.574;2023-07-24T00:52:14;6.00;;;2.25;;
80334;SDS011;69653;52.674;13.574;2023-07-24T00:54:40;4.78;;;2.60;;
80334;SDS011;69653;52.674;13.574;2023-07-24T00:59:42;6.38;;;2.80;;
80334;SDS011;69653;52.674;13.574;2023-07-24T01:02:09;5.22;;;2.55;;
80334;SDS011;69653;52.674;13.574;2023-07-24T01:04:36;5.72;;;2.63;;
80334;SDS011;69653;52.674;13.574;2023-07-24T01:07:02;6.43;;;2.17;;
80334;SDS011;69653;52.674;13.574;2023-07-24T01:09:27;6.15;;;2.60;;
80334;SDS011;69653;52.674;13.574;2023-07-24T01:12:02;6.70;;;2.53;;
80334;SDS011;69653;52.674;13.574;2023-07-24T01:17:06;5.43;;;2.63;;
80334;SDS011;69653;52.674;13.574;2023-07-24T01:19:37;6.07;;;2.15;;
80334;SDS011;69653;52.674;13.574;2023-07-24T01:25:04;5.72;;;2.53;;
80334;SDS011;69653;52.674;13.574;2023-07-24T01:27:40;7.05;;;2.25;;
80334;SDS011;69653;52.674;13.574;2023-07-24T01:30:07;5.25;;;2.30;;
80334;SDS011;69653;52.674;13.574;2023-07-24T01:32:33;5.43;;;2.30;;
80334;SDS011;69653;52.674;13.574;2023-07-24T01:35:01;5.68;;;2.30;;
80334;SDS011;69653;52.674;13.574;2023-07-24T01:37:27;5.68;;;2.22;;
80334;SDS011;69653;52.674;13.574;2023-07-24T01:39:53;6.68;;;2.47;;
80334;SDS011;69653;52.674;13.574;2023-07-24T01:42:20;5.45;;;2.45;;
80334;SDS011;69653;52.674;13.574;2023-07-24T01:44:50;5.57;;;2.42;;
80334;SDS011;69653;52.674;13.574;2023-07-24T01:47:17;5.03;;;2.33;;
80334;SDS011;69653;52.674;13.574;2023-07-24T01:49:42;5.28;;;2.10;;
80334;SDS011;69653;52.674;13.574;2023-07-24T01:52:08;5.80;;;2.33;;
80334;SDS011;69653;52.674;13.574;2023-07-24T01:54:33;5.53;;;2.70;;
80334;SDS011;69653;52.674;13.574;2023-07-24T01:56:59;4.93;;;2.20;;
80334;SDS011;69653;52.674;13.574;2023-07-24T01:59:24;5.10;;;2.30;;
80334;SDS011;69653;52.674;13.574;2023-07-24T02:01:49;5.60;;;2.53;;
80334;SDS011;69653;52.674;13.574;2023-07-24T02:04:15;6.50;;;2.60;;
80334;SDS011;69653;52.674;13.574;2023-07-24T02:06:40;5.57;;;2.35;;
80334;SDS011;69653;52.674;13.574;2023-07-24T02:09:06;7.05;;;2.80;;
80334;SDS011;69653;52.674;13.574;2023-07-24T02:11:31;6.40;;;2.37;;
80334;SDS011;69653;52.674;13.574;2023-07-24T02:13:56;5.13;;;2.50;;
80334;SDS011;69653;52.674;13.574;2023-07-24T02:16:22;4.90;;;2.25;;
80334;SDS011;69653;52.674;13.574;2023-07-24T02:18:47;4.90;;;2.35;;
80334;SDS011;69653;52.674;13.574;2023-07-24T02:21:13;4.65;;;2.08;;
80334;SDS011;69653;52.674;13.574;2023-07-24T02:23:38;5.53;;;2.23;;
80334;SDS011;69653;52.674;13.574;2023-07-24T02:26:03;5.90;;;2.37;;
80334;SDS011;69653;52.674;13.574;2023-07-24T02:28:29;8.65;;;2.20;;
80334;SDS011;69653;52.674;13.574;2023-07-24T02:30:54;4.78;;;2.22;;
80334;SDS011;69653;52.674;13.574;2023-07-24T02:33:21;4.97;;;2.25;;
80334;SDS011;69653;52.674;13.574;2023-07-24T02:35:48;5.30;;;2.30;;
80334;SDS011;69653;52.674;13.574;2023-07-24T02:38:16;4.50;;;1.85;;
80334;SDS011;69653;52.674;13.574;2023-07-24T02:40:41;5.45;;;2.50;;
80334;SDS011;69653;52.674;13.574;2023-07-24T02:43:07;5.10;;;2.33;;
80334;SDS011;69653;52.674;13.574;2023-07-24T02:45:36;4.70;;;2.23;;
80334;SDS011;69653;52.674;13.574;2023-07-24T02:48:02;5.10;;;1.95;;
80334;SDS011;69653;52.674;13.574;2023-07-24T02:50:28;4.15;;;2.05;;
80334;SDS011;69653;52.674;13.574;2023-07-24T02:52:53;5.15;;;1.90;;
80334;SDS011;69653;52.674;13.574;2023-07-24T02:55:19;5.28;;;2.20;;
80334;SDS011;69653;52.674;13.574;2023-07-24T02:57:44;5.95;;;1.88;;
80334;SDS011;69653;52.674;13.574;2023-07-24T03:00:10;5.10;;;2.13;;
80334;SDS011;69653;52.674;13.574;2023-07-24T03:02:36;6.40;;;2.03;;
80334;SDS011;69653;52.674;13.574;2023-07-24T03:05:01;5.53;;;2.03;;
80334;SDS011;69653;52.674;13.574;2023-07-24T03:07:27;6.28;;;2.10;;
80334;SDS011;69653;52.674;13.574;2023-07-24T03:09:52;4.80;;;2.20;;
80334;SDS011;69653;52.674;13.574;2023-07-24T03:12:18;4.67;;;2.00;;
80334;SDS011;69653;52.674;13.574;2023-07-24T03:14:43;5.23;;;2.43;;
80334;SDS011;69653;52.674;13.574;2023-07-24T03:17:08;5.00;;;2.20;;
80334;SDS011;69653;52.674;13.574;2023-07-24T03:19:34;4.55;;;1.95;;
80334;SDS011;69653;52.674;13.574;2023-07-24T03:21:59;4.97;;;2.65;;
80334;SDS011;69653;52.674;13.574;2023-07-24T03:24:24;6.00;;;2.90;;
80334;SDS011;69653;52.674;13.574;2023-07-24T03:26:50;4.60;;;2.30;;
80334;SDS011;69653;52.674;13.574;2023-07-24T03:29:15;3.97;;;1.60;;
80334;SDS011;69653;52.674;13.574;2023-07-24T03:31:41;7.03;;;2.40;;
80334;SDS011;69653;52.674;13.574;2023-07-24T03:34:06;4.80;;;2.00;;
80334;SDS011;69653;52.674;13.574;2023-07-24T03:36:31;5.07;;;1.70;;
80334;SDS011;69653;52.674;13.574;2023-07-24T03:38:57;5.20;;;2.00;;
80334;SDS011;69653;52.674;13.574;2023-07-24T03:41:22;4.63;;;2.20;;
80334;SDS011;69653;52.674;13.574;2023-07-24T03:43:47;5.43;;;2.17;;
80334;SDS011;69653;52.674;13.574;2023-07-24T03:46:13;5.40;;;2.53;;
80334;SDS011;69653;52.674;13.574;2023-07-24T03:48:38;4.23;;;2.33;;
80334;SDS011;69653;52.674;13.574;2023-07-24T03:51:03;4.43;;;2.20;;
80334;SDS011;69653;52.674;13.574;2023-07-24T03:53:29;5.00;;;2.00;;
80334;SDS011;69653;52.674;13.574;2023-07-24T03:55:54;5.05;;;2.60;;
80334;SDS011;69653;52.674;13.574;2023-07-24T03:58:22;4.72;;;2.10;;
80334;SDS011;69653;52.674;13.574;2023-07-24T04:00:47;5.23;;;2.20;;
80334;SDS011;69653;52.674;13.574;2023-07-24T04:03:12;4.10;;;1.90;;
80334;SDS011;69653;52.674;13.574;2023-07-24T04:05:38;4.90;;;1.90;;
80334;SDS011;69653;52.674;13.574;2023-07-24T04:08:03;7.70;;;2.00;;
80334;SDS011;69653;52.674;13.574;2023-07-24T04:10:29;4.20;;;1.80;;
80334;SDS011;69653;52.674;13.574;2023-07-24T04:12:55;3.97;;;1.95;;
80334;SDS011;69653;52.674;13.574;2023-07-24T04:15:22;6.30;;;2.35;;
80334;SDS011;69653;52.674;13.574;2023-07-24T04:17:47;3.90;;;1.85;;
80334;SDS011;69653;52.674;13.574;2023-07-24T04:20:12;4.80;;;2.03;;
80334;SDS011;69653;52.674;13.574;2023-07-24T04:22:38;7.37;;;2.10;;
80334;SDS011;69653;52.674;13.574;2023-07-24T04:25:03;4.63;;;1.87;;
80334;SDS011;69653;52.674;13.574;2023-07-24T04:27:29;6.05;;;2.00;;
80334;SDS011;69653;52.674;13.574;2023-07-24T04:29:54;4.63;;;1.87;;
80334;SDS011;69653;52.674;13.574;2023-07-24T04:32:19;4.30;;;1.90;;
80334;SDS011;69653;52.674;13.574;2023-07-24T04:34:45;4.10;;;1.83;;
80334;SDS011;69653;52.674;13.574;2023-07-24T04:37:10;5.18;;;1.88;;
80334;SDS011;69653;52.674;13.574;2023-07-24T04:39:38;4.18;;;1.50;;
80334;SDS011;69653;52.674;13.574;2023-07-24T04:42:03;6.00;;;2.25;;
80334;SDS011;69653;52.674;13.574;2023-07-24T04:44:29;6.03;;;1.85;;
80334;SDS011;69653;52.674;13.574;2023-07-24T04:46:55;4.07;;;1.83;;
80334;SDS011;69653;52.674;13.574;2023-07-24T04:49:20;5.30;;;1.80;;
80334;SDS011;69653;52.674;13.574;2023-07-24T04:51:46;4.38;;;1.80;;
80334;SDS011;69653;52.674;13.574;2023-07-24T04:54:11;3.97;;;1.50;;
80334;SDS011;69653;52.674;13.574;2023-07-24T04:56:37;6.47;;;2.03;;
80334;SDS011;69653;52.674;13.574;2023-07-24T04:59:03;5.17;;;1.87;;
80334;SDS011;69653;52.674;13.574;2023-07-24T05:01:28;4.23;;;1.70;;
80334;SDS011;69653;52.674;13.574;2023-07-24T05:03:56;4.43;;;1.85;;
80334;SDS011;69653;52.674;13.574;2023-07-24T05:06:22;5.47;;;2.03;;
80334;SDS011;69653;52.674;13.574;2023-07-24T05:08:48;4.40;;;1.75;;
80334;SDS011;69653;52.674;13.574;2023-07-24T05:11:13;4.90;;;2.23;;
80334;SDS011;69653;52.674;13.574;2023-07-24T05:13:39;4.13;;;2.10;;
80334;SDS011;69653;52.674;13.574;2023-07-24T05:16:04;5.30;;;3.20;;
80334;SDS011;69653;52.674;13.574;2023-07-24T05:18:29;8.57;;;3.80;;
80334;SDS011;69653;52.674;13.574;2023-07-24T05:20:55;5.87;;;2.40;;
80334;SDS011;69653;52.674;13.574;2023-07-24T05:23:20;6.30;;;2.47;;
80334;SDS011;69653;52.674;13.574;2023-07-24T05:25:46;4.53;;;2.00;;
80334;SDS011;69653;52.674;13.574;2023-07-24T05:28:11;3.88;;;1.70;;
80334;SDS011;69653;52.674;13.574;2023-07-24T05:30:36;5.10;;;2.00;;
80334;SDS011;69653;52.674;13.574;2023-07-24T05:33:02;4.10;;;1.70;;
80334;SDS011;69653;52.674;13.574;2023-07-24T05:35:27;5.28;;;1.90;;
80334;SDS011;69653;52.674;13.574;2023-07-24T05:37:53;4.55;;;1.58;;
80334;SDS011;69653;52.674;13.574;2023-07-24T05:40:18;5.50;;;1.73;;
80334;SDS011;69653;52.674;13.574;2023-07-24T05:42:43;4.00;;;1.63;;
80334;SDS011;69653;52.674;13.574;2023-07-24T05:45:09;3.87;;;1.60;;
80334;SDS011;69653;52.674;13.574;2023-07-24T05:47:39;6.70;;;2.80;;
80334;SDS011;69653;52.674;13.574;2023-07-24T05:50:05;4.00;;;1.47;;
80334;SDS011;69653;52.674;13.574;2023-07-24T05:52:30;3.60;;;1.40;;
80334;SDS011;69653;52.674;13.574;2023-07-24T05:54:56;3.40;;;1.20;;
80334;SDS011;69653;52.674;13.574;2023-07-24T05:57:21;3.90;;;1.60;;
80334;SDS011;69653;52.674;13.574;2023-07-24T05:59:46;4.13;;;1.27;;
80334;SDS011;69653;52.674;13.574;2023-07-24T06:02:12;6.47;;;1.67;;
80334;SDS011;69653;52.674;13.574;2023-07-24T06:04:37;3.77;;;1.33;;
80334;SDS011;69653;52.674;13.574;2023-07-24T06:07:02;6.73;;;1.40;;
80334;SDS011;69653;52.674;13.574;2023-07-24T06:09:28;3.95;;;1.20;;
80334;SDS011;69653;52.674;13.574;2023-07-24T06:11:53;3.87;;;1.60;;
80334;SDS011;69653;52.674;13.574;2023-07-24T06:14:18;3.03;;;1.20;;
80334;SDS011;69653;52.674;13.574;2023-07-24T06:16:44;3.63;;;1.33;;
80334;SDS011;69653;52.674;13.574;2023-07-24T06:19:09;4.03;;;1.33;;
80334;SDS011;69653;52.674;13.574;2023-07-24T06:21:34;3.20;;;1.37;;
80334;SDS011;69653;52.674;13.574;2023-07-24T06:23:59;3.73;;;1.70;;
80334;SDS011;69653;52.674;13.574;2023-07-24T06:26:25;4.07;;;1.37;;
80334;SDS011;69653;52.674;13.574;2023-07-24T06:28:50;3.30;;;1.50;;
80334;SDS011;69653;52.674;13.574;2023-07-24T06:31:15;3.40;;;1.40;;
80334;SDS011;69653;52.674;13.574;2023-07-24T06:33:41;3.03;;;1.20;;
80334;SDS011;69653;52.674;13.574;2023-07-24T06:36:09;2.90;;;1.20;;
80334;SDS011;69653;52.674;13.574;2023-07-24T06:38:35;3.25;;;1.23;;
80334;SDS011;69653;52.674;13.574;2023-07-24T06:41:00;3.20;;;1.20;;
80334;SDS011;69653;52.674;13.574;2023-07-24T06:43:26;3.30;;;1.30;;
80334;SDS011;69653;52.674;13.574;2023-07-24T06:45:52;4.50;;;1.50;;
80334;SDS011;69653;52.674;13.574;2023-07-24T06:48:18;3.97;;;1.50;;
80334;SDS011;69653;52.674;13.574;2023-07-24T06:50:43;3.70;;;1.70;;
80334;SDS011;69653;52.674;13.574;2023-07-24T06:53:08;3.27;;;1.10;;
80334;SDS011;69653;52.674;13.574;2023-07-24T06:55:33;3.90;;;1.40;;
80334;SDS011;69653;52.674;13.574;2023-07-24T06:57:59;3.80;;;1.40;;
80334;SDS011;69653;52.674;13.574;2023-07-24T07:00:24;3.00;;;1.30;;
80334;SDS011;69653;52.674;13.574;2023-07-24T07:02:49;3.30;;;1.47;;
80334;SDS011;69653;52.674;13.574;2023-07-24T07:05:15;3.73;;;1.30;;
80334;SDS011;69653;52.674;13.574;2023-07-24T07:07:40;3.17;;;1.30;;
80334;SDS011;69653;52.674;13.574;2023-07-24T07:10:06;3.47;;;1.43;;
80334;SDS011;69653;52.674;13.574;2023-07-24T07:12:31;4.00;;;2.03;;
80334;SDS011;69653;52.674;13.574;2023-07-24T07:14:57;3.07;;;1.47;;
80334;SDS011;69653;52.674;13.574;2023-07-24T07:17:22;3.37;;;1.20;;
80334;SDS011;69653;52.674;13.574;2023-07-24T07:19:47;3.20;;;1.30;;
80334;SDS011;69653;52.674;13.574;2023-07-24T07:22:12;3.97;;;1.47;;
80334;SDS011;69653;52.674;13.574;2023-07-24T07:24:38;4.30;;;1.47;;
80334;SDS011;69653;52.674;13.574;2023-07-24T07:27:03;3.17;;;1.40;;
80334;SDS011;69653;52.674;13.574;2023-07-24T07:29:29;3.72;;;1.60;;
80334;SDS011;69653;52.674;13.574;2023-07-24T07:31:56;3.70;;;1.25;;
80334;SDS011;69653;52.674;13.574;2023-07-24T07:34:21;3.15;;;1.50;;
80334;SDS011;69653;52.674;13.574;2023-07-24T07:36:47;5.10;;;1.60;;
80334;SDS011;69653;52.674;13.574;2023-07-24T07:39:12;4.27;;;1.40;;
80334;SDS011;69653;52.674;13.574;2023-07-24T07:41:37;3.10;;;1.30;;
80334;SDS011;69653;52.674;13.574;2023-07-24T07:44:02;4.83;;;1.30;;
80334;SDS011;69653;52.674;13.574;2023-07-24T07:46:28;3.38;;;1.27;;
80334;SDS011;69653;52.674;13.574;2023-07-24T07:48:53;3.77;;;1.40;;
80334;SDS011;69653;52.674;13.574;2023-07-24T07:51:19;4.63;;;1.50;;
80334;SDS011;69653;52.674;13.574;2023-07-24T07:53:44;3.17;;;1.30;;
80334;SDS011;69653;52.674;13.574;2023-07-24T07:56:09;3.83;;;1.53;;
80334;SDS011;69653;52.674;13.574;2023-07-24T07:58:35;5.40;;;2.15;;
80334;SDS011;69653;52.674;13.574;2023-07-24T08:01:06;7.80;;;3.77;;
80334;SDS011;69653;52.674;13.574;2023-07-24T08:03:31;5.85;;;2.45;;
80334;SDS011;69653;52.674;13.574;2023-07-24T08:05:57;4.38;;;1.40;;
80334;SDS011;69653;52.674;13.574;2023-07-24T08:08:23;6.25;;;3.00;;
80334;SDS011;69653;52.674;13.574;2023-07-24T08:10:49;3.42;;;1.40;;
80334;SDS011;69653;52.674;13.574;2023-07-24T08:13:14;4.70;;;2.13;;
80334;SDS011;69653;52.674;13.574;2023-07-24T08:15:39;3.43;;;1.30;;
80334;SDS011;69653;52.674;13.574;2023-07-24T08:18:05;3.60;;;1.40;;
80334;SDS011;69653;52.674;13.574;2023-07-24T08:20:40;3.47;;;1.40;;
80334;SDS011;69653;52.674;13.574;2023-07-24T08:23:05;3.08;;;1.33;;
80334;SDS011;69653;52.674;13.574;2023-07-24T08:25:31;2.90;;;1.17;;
80334;SDS011;69653;52.674;13.574;2023-07-24T08:27:56;3.37;;;1.30;;
80334;SDS011;69653;52.674;13.574;2023-07-24T08:30:21;3.50;;;1.60;;
80334;SDS011;69653;52.674;13.574;2023-07-24T08:32:47;3.70;;;1.60;;
80334;SDS011;69653;52.674;13.574;2023-07-24T08:35:15;4.20;;;1.70;;
80334;SDS011;69653;52.674;13.574;2023-07-24T08:37:42;5.00;;;1.58;;
80334;SDS011;69653;52.674;13.574;2023-07-24T08:40:09;5.07;;;1.92;;
80334;SDS011;69653;52.674;13.574;2023-07-24T08:42:35;4.25;;;1.58;;
80334;SDS011;69653;52.674;13.574;2023-07-24T08:45:11;4.00;;;1.67;;
80334;SDS011;69653;52.674;13.574;2023-07-24T08:47:41;3.55;;;1.63;;
80334;SDS011;69653;52.674;13.574;2023-07-24T08:50:08;3.60;;;1.38;;
80334;SDS011;69653;52.674;13.574;2023-07-24T08:52:36;3.97;;;1.63;;
80334;SDS011;69653;52.674;13.574;2023-07-24T08:55:01;3.33;;;1.65;;
80334;SDS011;69653;52.674;13.574;2023-07-24T08:57:28;3.70;;;1.60;;
80334;SDS011;69653;52.674;13.574;2023-07-24T08:59:54;3.97;;;1.63;;
80334;SDS011;69653;52.674;13.574;2023-07-24T09:02:19;4.17;;;1.60;;
80334;SDS011;69653;52.674;13.574;2023-07-24T09:04:44;3.77;;;1.70;;
80334;SDS011;69653;52.674;13.574;2023-07-24T09:07:10;4.00;;;1.70;;
80334;SDS011;69653;52.674;13.574;2023-07-24T09:09:36;4.13;;;1.50;;
80334;SDS011;69653;52.674;13.574;2023-07-24T09:12:01;4.07;;;1.50;;
80334;SDS011;69653;52.674;13.574;2023-07-24T09:14:27;4.22;;;1.52;;
80334;SDS011;69653;52.674;13.574;2023-07-24T09:17:06;3.70;;;1.60;;
80334;SDS011;69653;52.674;13.574;2023-07-24T09:19:36;5.03;;;1.67;;
80334;SDS011;69653;52.674;13.574;2023-07-24T09:22:13;3.47;;;1.50;;
80334;SDS011;69653;52.674;13.574;2023-07-24T09:24:49;3.20;;;1.10;;
80334;SDS011;69653;52.674;13.574;2023-07-24T09:27:16;3.72;;;1.40;;
80334;SDS011;69653;52.674;13.574;2023-07-24T09:29:41;4.57;;;1.60;;
80334;SDS011;69653;52.674;13.574;2023-07-24T09:32:07;3.58;;;1.30;;
80334;SDS011;69653;52.674;13.574;2023-07-24T09:34:32;3.65;;;1.63;;
80334;SDS011;69653;52.674;13.574;2023-07-24T09:36:58;2.75;;;1.25;;
80334;SDS011;69653;52.674;13.574;2023-07-24T09:39:26;3.78;;;1.40;;
80334;SDS011;69653;52.674;13.574;2023-07-24T09:41:52;4.22;;;1.40;;
80334;SDS011;69653;52.674;13.574;2023-07-24T09:44:19;4.72;;;1.58;;
80334;SDS011;69653;52.674;13.574;2023-07-24T09:46:45;4.15;;;1.45;;
80334;SDS011;69653;52.674;13.574;2023-07-24T09:49:10;3.95;;;1.50;;
80334;SDS011;69653;52.674;13.574;2023-07-24T09:51:37;4.75;;;1.50;;
80334;SDS011;69653;52.674;13.574;2023-07-24T09:56:41;4.18;;;1.63;;
80334;SDS011;69653;52.674;13.574;2023-07-24T09:59:07;3.80;;;1.60;;
80334;SDS011;69653;52.674;13.574;2023-07-24T10:01:34;3.33;;;1.60;;
80334;SDS011;69653;52.674;13.574;2023-07-24T10:04:00;5.15;;;1.48;;
80334;SDS011;69653;52.674;13.574;2023-07-24T10:06:26;4.95;;;1.63;;
80334;SDS011;69653;52.674;13.574;2023-07-24T10:08:54;4.00;;;1.60;;
80334;SDS011;69653;52.674;13.574;2023-07-24T10:11:20;3.75;;;1.60;;
80334;SDS011;69653;52.674;13.574;2023-07-24T10:13:45;3.67;;;1.73;;
80334;SDS011;69653;52.674;13.574;2023-07-24T10:16:11;6.07;;;1.83;;
80334;SDS011;69653;52.674;13.574;2023-07-24T10:18:43;4.80;;;1.70;;
80334;SDS011;69653;52.674;13.574;2023-07-24T10:21:10;4.95;;;1.70;;
80334;SDS011;69653;52.674;13.574;2023-07-24T10:23:37;4.40;;;1.70;;
80334;SDS011;69653;52.674;13.574;2023-07-24T10:26:08;5.05;;;1.50;;
80334;SDS011;69653;52.674;13.574;2023-07-24T10:28:35;4.40;;;1.63;;
80334;SDS011;69653;52.674;13.574;2023-07-24T10:31:19;4.40;;;2.47;;
80334;SDS011;69653;52.674;13.574;2023-07-24T10:33:46;3.95;;;2.00;;
80334;SDS011;69653;52.674;13.574;2023-07-24T10:36:11;4.20;;;1.70;;
80334;SDS011;69653;52.674;13.574;2023-07-24T10:38:42;3.70;;;1.58;;
80334;SDS011;69653;52.674;13.574;2023-07-24T10:41:09;6.15;;;1.80;;
80334;SDS011;69653;52.674;13.574;2023-07-24T10:43:42;3.75;;;1.60;;
80334;SDS011;69653;52.674;13.574;2023-07-24T10:46:11;4.68;;;1.80;;
80334;SDS011;69653;52.674;13.574;2023-07-24T10:48:37;5.93;;;1.77;;
80334;SDS011;69653;52.674;13.574;2023-07-24T10:51:07;4.78;;;2.03;;
80334;SDS011;69653;52.674;13.574;2023-07-24T10:53:34;5.03;;;2.15;;
80334;SDS011;69653;52.674;13.574;2023-07-24T10:56:01;4.05;;;1.70;;
80334;SDS011;69653;52.674;13.574;2023-07-24T10:58:27;6.45;;;2.42;;
80334;SDS011;69653;52.674;13.574;2023-07-24T11:00:52;4.25;;;2.15;;
80334;SDS011;69653;52.674;13.574;2023-07-24T11:03:18;4.23;;;1.73;;
80334;SDS011;69653;52.674;13.574;2023-07-24T11:05:44;4.25;;;1.80;;
80334;SDS011;69653;52.674;13.574;2023-07-24T11:08:15;5.05;;;1.77;;
80334;SDS011;69653;52.674;13.574;2023-07-24T11:13:12;5.53;;;1.88;;
80334;SDS011;69653;52.674;13.574;2023-07-24T11:15:37;5.90;;;2.33;;
80334;SDS011;69653;52.674;13.574;2023-07-24T11:18:03;4.67;;;2.07;;
80334;SDS011;69653;52.674;13.574;2023-07-24T11:20:29;5.22;;;2.40;;
80334;SDS011;69653;52.674;13.574;2023-07-24T11:22:57;5.97;;;2.63;;
80334;SDS011;69653;52.674;13.574;2023-07-24T11:25:22;6.65;;;2.53;;
80334;SDS011;69653;52.674;13.574;2023-07-24T11:27:48;9.07;;;4.32;;
80334;SDS011;69653;52.674;13.574;2023-07-24T11:30:19;5.30;;;2.43;;
80334;SDS011;69653;52.674;13.574;2023-07-24T11:32:45;5.80;;;2.50;;
80334;SDS011;69653;52.674;13.574;2023-07-24T11:35:11;5.70;;;2.28;;
80334;SDS011;69653;52.674;13.574;2023-07-24T11:37:37;7.03;;;2.80;;
80334;SDS011;69653;52.674;13.574;2023-07-24T11:40:03;5.82;;;2.58;;
80334;SDS011;69653;52.674;13.574;2023-07-24T11:42:33;5.97;;;2.40;;
80334;SDS011;69653;52.674;13.574;2023-07-24T11:45:02;5.75;;;2.95;;
80334;SDS011;69653;52.674;13.574;2023-07-24T11:47:28;5.75;;;3.10;;
80334;SDS011;69653;52.674;13.574;2023-07-24T11:50:01;6.47;;;2.47;;
80334;SDS011;69653;52.674;13.574;2023-07-24T11:52:36;5.80;;;2.50;;
80334;SDS011;69653;52.674;13.574;2023-07-24T11:55:04;6.05;;;2.72;;
80334;SDS011;69653;52.674;13.574;2023-07-24T11:57:29;4.90;;;2.50;;
80334;SDS011;69653;52.674;13.574;2023-07-24T11:59:55;6.83;;;2.97;;
80334;SDS011;69653;52.674;13.574;2023-07-24T12:02:23;6.22;;;2.53;;
80334;SDS011;69653;52.674;13.574;2023-07-24T12:04:56;5.45;;;2.70;;
80334;SDS011;69653;52.674;13.574;2023-07-24T12:07:33;6.07;;;2.50;;
80334;SDS011;69653;52.674;13.574;2023-07-24T12:10:00;5.35;;;2.80;;
80334;SDS011;69653;52.674;13.574;2023-07-24T12:12:37;6.70;;;3.05;;
80334;SDS011;69653;52.674;13.574;2023-07-24T12:15:03;5.80;;;2.72;;
80334;SDS011;69653;52.674;13.574;2023-07-24T12:17:29;7.10;;;2.92;;
80334;SDS011;69653;52.674;13.574;2023-07-24T12:19:54;6.40;;;2.97;;
80334;SDS011;69653;52.674;13.574;2023-07-24T12:22:20;6.80;;;2.70;;
80334;SDS011;69653;52.674;13.574;2023-07-24T12:24:45;7.93;;;2.50;;
80334;SDS011;69653;52.674;13.574;2023-07-24T12:27:10;7.80;;;3.07;;
80334;SDS011;69653;52.674;13.574;2023-07-24T12:29:35;6.43;;;2.67;;
80334;SDS011;69653;52.674;13.574;2023-07-24T12:32:01;7.53;;;3.00;;
80334;SDS011;69653;52.674;13.574;2023-07-24T12:34:26;6.95;;;3.25;;
80334;SDS011;69653;52.674;13.574;2023-07-24T12:36:52;7.60;;;3.53;;
80334;SDS011;69653;52.674;13.574;2023-07-24T12:39:18;6.47;;;2.80;;
80334;SDS011;69653;52.674;13.574;2023-07-24T12:41:44;6.63;;;2.60;;
80334;SDS011;69653;52.674;13.574;2023-07-24T12:44:09;7.53;;;2.93;;
80334;SDS011;69653;52.674;13.574;2023-07-24T12:46:34;8.00;;;2.97;;
80334;SDS011;69653;52.674;13.574;2023-07-24T12:49:00;6.07;;;2.97;;
80334;SDS011;69653;52.674;13.574;2023-07-24T12:51:25;6.60;;;2.90;;
80334;SDS011;69653;52.674;13.574;2023-07-24T12:53:50;9.60;;;3.00;;
80334;SDS011;69653;52.674;13.574;2023-07-24T12:56:16;6.80;;;2.97;;
80334;SDS011;69653;52.674;13.574;2023-07-24T12:58:41;6.70;;;3.57;;
80334;SDS011;69653;52.674;13.574;2023-07-24T13:01:06;6.70;;;2.73;;
80334;SDS011;69653;52.674;13.574;2023-07-24T13:03:32;8.53;;;3.17;;
80334;SDS011;69653;52.674;13.574;2023-07-24T13:05:57;6.33;;;2.37;;
80334;SDS011;69653;52.674;13.574;2023-07-24T13:08:22;5.90;;;2.67;;
80334;SDS011;69653;52.674;13.574;2023-07-24T13:10:48;7.32;;;2.60;;
80334;SDS011;69653;52.674;13.574;2023-07-24T13:13:14;5.47;;;2.30;;
80334;SDS011;69653;52.674;13.574;2023-07-24T13:15:39;6.10;;;2.27;;
80334;SDS011;69653;52.674;13.574;2023-07-24T13:18:04;7.00;;;2.40;;
80334;SDS011;69653;52.674;13.574;2023-07-24T13:20:30;7.03;;;2.60;;
80334;SDS011;69653;52.674;13.574;2023-07-24T13:22:58;6.30;;;2.80;;
80334;SDS011;69653;52.674;13.574;2023-07-24T13:25:24;5.03;;;2.42;;
80334;SDS011;69653;52.674;13.574;2023-07-24T13:27:49;5.67;;;2.83;;
80334;SDS011;69653;52.674;13.574;2023-07-24T13:30:15;6.78;;;2.63;;
80334;SDS011;69653;52.674;13.574;2023-07-24T13:32:41;5.95;;;2.70;;
80334;SDS011;69653;52.674;13.574;2023-07-24T13:35:07;4.43;;;2.10;;
80334;SDS011;69653;52.674;13.574;2023-07-24T13:37:32;7.70;;;2.42;;
80334;SDS011;69653;52.674;13.574;2023-07-24T13:39:58;7.40;;;2.70;;
80334;SDS011;69653;52.674;13.574;2023-07-24T13:42:23;5.57;;;2.50;;
80334;SDS011;69653;52.674;13.574;2023-07-24T13:44:48;5.43;;;2.43;;
80334;SDS011;69653;52.674;13.574;2023-07-24T13:47:14;7.07;;;2.80;;
80334;SDS011;69653;52.674;13.574;2023-07-24T13:49:39;9.03;;;2.87;;
80334;SDS011;69653;52.674;13.574;2023-07-24T13:52:04;5.50;;;2.30;;
80334;SDS011;69653;52.674;13.574;2023-07-24T13:54:32;8.30;;;2.00;;
80334;SDS011;69653;52.674;13.574;2023-07-24T13:56:58;6.53;;;2.30;;
80334;SDS011;69653;52.674;13.574;2023-07-24T13:59:23;5.50;;;2.23;;
80334;SDS011;69653;52.674;13.574;2023-07-24T14:01:48;7.60;;;2.50;;
80334;SDS011;69653;52.674;13.574;2023-07-24T14:04:14;6.47;;;2.43;;
80334;SDS011;69653;52.674;13.574;2023-07-24T14:06:39;11.43;;;5.50;;
80334;SDS011;69653;52.674;13.574;2023-07-24T14:09:05;6.68;;;3.10;;
80334;SDS011;69653;52.674;13.574;2023-07-24T14:11:30;6.40;;;2.90;;
80334;SDS011;69653;52.674;13.574;2023-07-24T14:13:55;5.77;;;2.37;;
80334;SDS011;69653;52.674;13.574;2023-07-24T14:16:21;9.93;;;4.73;;
80334;SDS011;69653;52.674;13.574;2023-07-24T14:18:46;6.80;;;2.67;;
80334;SDS011;69653;52.674;13.574;2023-07-24T14:21:11;6.60;;;2.70;;
80334;SDS011;69653;52.674;13.574;2023-07-24T14:23:37;5.97;;;2.50;;
80334;SDS011;69653;52.674;13.574;2023-07-24T14:26:02;5.55;;;2.40;;
80334;SDS011;69653;52.674;13.574;2023-07-24T14:28:28;4.93;;;2.00;;
80334;SDS011;69653;52.674;13.574;2023-07-24T14:30:53;4.07;;;1.70;;
80334;SDS011;69653;52.674;13.574;2023-07-24T14:33:18;5.20;;;2.03;;
80334;SDS011;69653;52.674;13.574;2023-07-24T14:35:44;7.47;;;2.40;;
80334;SDS011;69653;52.674;13.574;2023-07-24T14:38:09;4.70;;;2.10;;
80334;SDS011;69653;52.674;13.574;2023-07-24T14:40:34;4.53;;;2.03;;